Aviation Digital Data Service (ADDS)

Output produced by METARs form (0744 UTC 19 February 2019)
found at http://www.aviationweather.gov/metar/data/
 
METAR text: RORS 190700Z 20004KT 160V240 9999 -SHRA FEW007 SCT010 FEW020TCU BKN022 24/23 Q1017
Conditions at: RORS (SHIMOJI-SHIMA IS, JP) observed 0700 UTC 19 February 2019
Temperature: 24.0°C (75°F)
Dewpoint: 23.0°C (73°F) [RH = 94%]
Pressure (altimeter): 30.03 inches Hg (1017.0 mb)
Winds: from the SSW (200 degrees) at 5 MPH (4 knots; 2.1 m/s)
Visibility: 6 or more miles (10+ km)
Ceiling: 2200 feet AGL
Clouds: few clouds at 700 feet AGL
scattered clouds at 1000 feet AGL
few clouds at 2000 feet AGL
broken clouds at 2200 feet AGL
Weather: -SHRA  (light rain showers)

METAR text: RORS 190616Z 29006KT 200V350 5000 R17/1300VP2000U -SHRA FEW005 BKN014 FEW020TCU BKN017 22/21 Q1017 RMK 1ST005 5CU014 2TCU020 7CU017 A3005 TCU OHD MOV E
Conditions at: RORS (SHIMOJI-SHIMA IS, JP) observed 0616 UTC 19 February 2019
Temperature: 22.0°C (72°F)
Dewpoint: 21.0°C (70°F) [RH = 94%]
Pressure (altimeter): 30.03 inches Hg (1017.0 mb)
Winds: from the WNW (290 degrees) at 7 MPH (6 knots; 3.1 m/s)
Visibility: 3 miles ( 5 km)
Ceiling: 1400 feet AGL
Clouds: few clouds at 500 feet AGL
broken clouds at 1400 feet AGL
few clouds at 2000 feet AGL
broken clouds at 1700 feet AGL
Weather: -SHRA  (light rain showers)

METAR text: RORS 190613Z 27006KT 190V350 5000 R17/0700VP2000U -SHRA FEW005 BKN014 FEW020TCU BKN017 22/22 Q1017 RMK 1ST005 5CU014 2TCU020 7CU017 A3005 TCU OHD MOV E
Conditions at: RORS (SHIMOJI-SHIMA IS, JP) observed 0613 UTC 19 February 2019
Temperature: 22.0°C (72°F)
Dewpoint: 22.0°C (72°F) [RH = 100%]
Pressure (altimeter): 30.03 inches Hg (1017.0 mb)
Winds: from the W (270 degrees) at 7 MPH (6 knots; 3.1 m/s)
Visibility: 3 miles ( 5 km)
Ceiling: 1400 feet AGL
Clouds: few clouds at 500 feet AGL
broken clouds at 1400 feet AGL
few clouds at 2000 feet AGL
broken clouds at 1700 feet AGL
Weather: -SHRA  (light rain showers)

METAR text: RORS 190600Z 26007KT 170V320 1500 R17/0900VP2000D +SHRA BR SCT005 BKN010 FEW015TCU BKN017 22/21 Q1017
Conditions at: RORS (SHIMOJI-SHIMA IS, JP) observed 0600 UTC 19 February 2019
Temperature: 22.0°C (72°F)
Dewpoint: 21.0°C (70°F) [RH = 94%]
Pressure (altimeter): 30.03 inches Hg (1017.0 mb)
Winds: from the W (260 degrees) at 8 MPH (7 knots; 3.6 m/s)
Visibility: 0.93 miles (1.50 km)
Ceiling: 1000 feet AGL
Clouds: scattered clouds at 500 feet AGL
broken clouds at 1000 feet AGL
few clouds at 1500 feet AGL
broken clouds at 1700 feet AGL
Weather: +SHRA BR  (heavy rain showers, mist)

METAR text: RORS 190544Z 24004KT 200V290 5000 R17/1500VP2000N -SHRA FEW007 BKN015 BKN021 22/21 Q1017 RMK 2ST007 5CU015 7CU021 A3005
Conditions at: RORS (SHIMOJI-SHIMA IS, JP) observed 0544 UTC 19 February 2019
Temperature: 22.0°C (72°F)
Dewpoint: 21.0°C (70°F) [RH = 94%]
Pressure (altimeter): 30.03 inches Hg (1017.0 mb)
Winds: from the WSW (240 degrees) at 5 MPH (4 knots; 2.1 m/s)
Visibility: 3 miles ( 5 km)
Ceiling: 1500 feet AGL
Clouds: few clouds at 700 feet AGL
broken clouds at 1500 feet AGL
broken clouds at 2100 feet AGL
Weather: -SHRA  (light rain showers)

METAR text: RORS 190535Z 26011KT 220V290 1500 R17/0400VP2000D +SHRA BR SCT007 BKN010 22/21 Q1018 RMK 4ST007 6CU010 A3006 RI++
Conditions at: RORS (SHIMOJI-SHIMA IS, JP) observed 0535 UTC 19 February 2019
Temperature: 22.0°C (72°F)
Dewpoint: 21.0°C (70°F) [RH = 94%]
Pressure (altimeter): 30.06 inches Hg (1018.0 mb)
Winds: from the W (260 degrees) at 13 MPH (11 knots; 5.7 m/s)
Visibility: 0.93 miles (1.50 km)
Ceiling: 1000 feet AGL
Clouds: scattered clouds at 700 feet AGL
broken clouds at 1000 feet AGL
Weather: +SHRA BR  (heavy rain showers, mist)

METAR text: RORS 190500Z VRB01KT 9999 -SHRA FEW010 FEW020TCU SCT023 BKN050 25/23 Q1018
Conditions at: RORS (SHIMOJI-SHIMA IS, JP) observed 0500 UTC 19 February 2019
Temperature: 25.0°C (77°F)
Dewpoint: 23.0°C (73°F) [RH = 89%]
Pressure (altimeter): 30.06 inches Hg (1018.0 mb)
Winds: variable direction winds at 1 MPH (1 knots; 0.5 m/s)
Visibility: 6 or more miles (10+ km)
Ceiling: 5000 feet AGL
Clouds: few clouds at 1000 feet AGL
few clouds at 2000 feet AGL
scattered clouds at 2300 feet AGL
broken clouds at 5000 feet AGL
Weather: -SHRA  (light rain showers)

METAR text: RORS 190400Z 20008KT 170V250 9999 VCSH FEW010 FEW020TCU SCT025 BKN050 25/23 Q1018
Conditions at: RORS (SHIMOJI-SHIMA IS, JP) observed 0400 UTC 19 February 2019
Temperature: 25.0°C (77°F)
Dewpoint: 23.0°C (73°F) [RH = 89%]
Pressure (altimeter): 30.06 inches Hg (1018.0 mb)
Winds: from the SSW (200 degrees) at 9 MPH (8 knots; 4.1 m/s)
Visibility: 6 or more miles (10+ km)
Ceiling: 5000 feet AGL
Clouds: few clouds at 1000 feet AGL
few clouds at 2000 feet AGL
scattered clouds at 2500 feet AGL
broken clouds at 5000 feet AGL
Weather: VCSH  (showers in vicinity)

METAR text: RORS 190300Z 19012KT 9999 FEW019 FEW025TCU BKN050 26/23 Q1018
Conditions at: RORS (SHIMOJI-SHIMA IS, JP) observed 0300 UTC 19 February 2019
Temperature: 26.0°C (79°F)
Dewpoint: 23.0°C (73°F) [RH = 84%]
Pressure (altimeter): 30.06 inches Hg (1018.0 mb)
Winds: from the S (190 degrees) at 14 MPH (12 knots; 6.2 m/s)
Visibility: 6 or more miles (10+ km)
Ceiling: 5000 feet AGL
Clouds: few clouds at 1900 feet AGL
few clouds at 2500 feet AGL
broken clouds at 5000 feet AGL
Weather: no significant weather observed at this time

METAR text: RORS 190200Z 19011KT 160V240 9999 FEW015 SCT022 BKN028 26/24 Q1019
Conditions at: RORS (SHIMOJI-SHIMA IS, JP) observed 0200 UTC 19 February 2019
Temperature: 26.0°C (79°F)
Dewpoint: 24.0°C (75°F) [RH = 89%]
Pressure (altimeter): 30.09 inches Hg (1019.0 mb)
Winds: from the S (190 degrees) at 13 MPH (11 knots; 5.7 m/s)
Visibility: 6 or more miles (10+ km)
Ceiling: 2800 feet AGL
Clouds: few clouds at 1500 feet AGL
scattered clouds at 2200 feet AGL
broken clouds at 2800 feet AGL
Weather: no significant weather observed at this time

METAR text: RORS 190100Z 19011KT 170V230 9999 -SHRA FEW015 BKN060 25/23 Q1018
Conditions at: RORS (SHIMOJI-SHIMA IS, JP) observed 0100 UTC 19 February 2019
Temperature: 25.0°C (77°F)
Dewpoint: 23.0°C (73°F) [RH = 89%]
Pressure (altimeter): 30.06 inches Hg (1018.0 mb)
Winds: from the S (190 degrees) at 13 MPH (11 knots; 5.7 m/s)
Visibility: 6 or more miles (10+ km)
Ceiling: 6000 feet AGL
Clouds: few clouds at 1500 feet AGL
broken clouds at 6000 feet AGL
Weather: -SHRA  (light rain showers)

METAR text: RORS 190000Z 21009KT 170V250 9999 -SHRA SCT013 BKN026 24/23 Q1018
Conditions at: RORS (SHIMOJI-SHIMA IS, JP) observed 0000 UTC 19 February 2019
Temperature: 24.0°C (75°F)
Dewpoint: 23.0°C (73°F) [RH = 94%]
Pressure (altimeter): 30.06 inches Hg (1018.0 mb)
Winds: from the SSW (210 degrees) at 10 MPH (9 knots; 4.6 m/s)
Visibility: 6 or more miles (10+ km)
Ceiling: 2600 feet AGL
Clouds: scattered clouds at 1300 feet AGL
broken clouds at 2600 feet AGL
Weather: -SHRA  (light rain showers)

METAR text: RORS 182300Z 19010KT 9999 VCSH FEW014 SCT020 BKN030 24/22 Q1018
Conditions at: RORS (SHIMOJI-SHIMA IS, JP) observed 2300 UTC 18 February 2019
Temperature: 24.0°C (75°F)
Dewpoint: 22.0°C (72°F) [RH = 89%]
Pressure (altimeter): 30.06 inches Hg (1018.0 mb)
Winds: from the S (190 degrees) at 12 MPH (10 knots; 5.1 m/s)
Visibility: 6 or more miles (10+ km)
Ceiling: 3000 feet AGL
Clouds: few clouds at 1400 feet AGL
scattered clouds at 2000 feet AGL
broken clouds at 3000 feet AGL
Weather: VCSH  (showers in vicinity)

METAR text: RORS 182200Z 18012KT 9999 FEW015 SCT030 24/22 Q1017
Conditions at: RORS (SHIMOJI-SHIMA IS, JP) observed 2200 UTC 18 February 2019
Temperature: 24.0°C (75°F)
Dewpoint: 22.0°C (72°F) [RH = 89%]
Pressure (altimeter): 30.03 inches Hg (1017.0 mb)
Winds: from the S (180 degrees) at 14 MPH (12 knots; 6.2 m/s)
Visibility: 6 or more miles (10+ km)
Ceiling: at least 12,000 feet AGL
Clouds: few clouds at 1500 feet AGL
scattered clouds at 3000 feet AGL
Weather: no significant weather observed at this time

METAR text: RORS 181000Z 17008KT 9999 FEW019 BKN/// 23/21 Q1016
Conditions at: RORS (SHIMOJI-SHIMA IS, JP) observed 1000 UTC 18 February 2019
Temperature: 23.0°C (73°F)
Dewpoint: 21.0°C (70°F) [RH = 89%]
Pressure (altimeter): 30.00 inches Hg (1016.0 mb)
Winds: from the S (170 degrees) at 9 MPH (8 knots; 4.1 m/s)
Visibility: 6 or more miles (10+ km)
Ceiling: at least 12,000 feet AGL
Clouds: few clouds at 1900 feet AGL
Weather: no significant weather observed at this time

METAR text: RORS 180900Z 16011KT 9999 FEW019 SCT070 BKN/// 24/21 Q1016
Conditions at: RORS (SHIMOJI-SHIMA IS, JP) observed 0900 UTC 18 February 2019
Temperature: 24.0°C (75°F)
Dewpoint: 21.0°C (70°F) [RH = 83%]
Pressure (altimeter): 30.00 inches Hg (1016.0 mb)
Winds: from the SSE (160 degrees) at 13 MPH (11 knots; 5.7 m/s)
Visibility: 6 or more miles (10+ km)
Ceiling: at least 12,000 feet AGL
Clouds: few clouds at 1900 feet AGL
scattered clouds at 7000 feet AGL
Weather: no significant weather observed at this time

METAR text: RORS 180800Z 14012KT 9999 FEW019 BKN060 24/21 Q1015
Conditions at: RORS (SHIMOJI-SHIMA IS, JP) observed 0800 UTC 18 February 2019
Temperature: 24.0°C (75°F)
Dewpoint: 21.0°C (70°F) [RH = 83%]
Pressure (altimeter): 29.97 inches Hg (1015.0 mb)
Winds: from the SE (140 degrees) at 14 MPH (12 knots; 6.2 m/s)
Visibility: 6 or more miles (10+ km)
Ceiling: 6000 feet AGL
Clouds: few clouds at 1900 feet AGL
broken clouds at 6000 feet AGL
Weather: no significant weather observed at this time

METAR text: RORS 180700Z 14012KT 9999 FEW020 BKN070 25/21 Q1015
Conditions at: RORS (SHIMOJI-SHIMA IS, JP) observed 0700 UTC 18 February 2019
Temperature: 25.0°C (77°F)
Dewpoint: 21.0°C (70°F) [RH = 79%]
Pressure (altimeter): 29.97 inches Hg (1015.0 mb)
Winds: from the SE (140 degrees) at 14 MPH (12 knots; 6.2 m/s)
Visibility: 6 or more miles (10+ km)
Ceiling: 7000 feet AGL
Clouds: few clouds at 2000 feet AGL
broken clouds at 7000 feet AGL
Weather: no significant weather observed at this time

METAR text: RORS 180600Z 14015KT 9999 FEW010 SCT080 BKN100 25/22 Q1016
Conditions at: RORS (SHIMOJI-SHIMA IS, JP) observed 0600 UTC 18 February 2019
Temperature: 25.0°C (77°F)
Dewpoint: 22.0°C (72°F) [RH = 83%]
Pressure (altimeter): 30.00 inches Hg (1016.0 mb)
Winds: from the SE (140 degrees) at 17 MPH (15 knots; 7.7 m/s)
Visibility: 6 or more miles (10+ km)
Ceiling: 10000 feet AGL
Clouds: few clouds at 1000 feet AGL
scattered clouds at 8000 feet AGL
broken clouds at 10000 feet AGL
Weather: no significant weather observed at this time

METAR text: RORS 180500Z 13012KT 9999 FEW007 BKN060 24/22 Q1016
Conditions at: RORS (SHIMOJI-SHIMA IS, JP) observed 0500 UTC 18 February 2019
Temperature: 24.0°C (75°F)
Dewpoint: 22.0°C (72°F) [RH = 89%]
Pressure (altimeter): 30.00 inches Hg (1016.0 mb)
Winds: from the SE (130 degrees) at 14 MPH (12 knots; 6.2 m/s)
Visibility: 6 or more miles (10+ km)
Ceiling: 6000 feet AGL
Clouds: few clouds at 700 feet AGL
broken clouds at 6000 feet AGL
Weather: no significant weather observed at this time

METAR text: RORS 180415Z 17006KT 110V220 9999 -SHRA FEW007 SCT015 BKN080 23/22 Q1017 RMK 1ST007 3CU015 6AC080 A3005
Conditions at: RORS (SHIMOJI-SHIMA IS, JP) observed 0415 UTC 18 February 2019
Temperature: 23.0°C (73°F)
Dewpoint: 22.0°C (72°F) [RH = 94%]
Pressure (altimeter): 30.03 inches Hg (1017.0 mb)
Winds: from the S (170 degrees) at 7 MPH (6 knots; 3.1 m/s)
Visibility: 6 or more miles (10+ km)
Ceiling: 8000 feet AGL
Clouds: few clouds at 700 feet AGL
scattered clouds at 1500 feet AGL
broken clouds at 8000 feet AGL
Weather: -SHRA  (light rain showers)

METAR text: RORS 180400Z VRB04G14KT 6000 R17/1100VP2000D -SHRA FEW003 BKN007 BKN010 21/21 Q1017
Conditions at: RORS (SHIMOJI-SHIMA IS, JP) observed 0400 UTC 18 February 2019
Temperature: 21.0°C (70°F)
Dewpoint: 21.0°C (70°F) [RH = 100%]
Pressure (altimeter): 30.03 inches Hg (1017.0 mb)
Winds: variable direction winds at 5 MPH (4 knots; 2.1 m/s)
gusting to 16 MPH (14 knots; 7.2 m/s)
Visibility: 4 miles ( 6 km)
Ceiling: 700 feet AGL
Clouds: few clouds at 300 feet AGL
broken clouds at 700 feet AGL
broken clouds at 1000 feet AGL
Weather: -SHRA  (light rain showers)

METAR text: RORS 180342Z 12005KT 080V160 5000 -SHRA FEW005 SCT007 BKN012 22/21 Q1018 RMK 1ST005 3ST007 6CU012 A3006
Conditions at: RORS (SHIMOJI-SHIMA IS, JP) observed 0342 UTC 18 February 2019
Temperature: 22.0°C (72°F)
Dewpoint: 21.0°C (70°F) [RH = 94%]
Pressure (altimeter): 30.06 inches Hg (1018.0 mb)
Winds: from the ESE (120 degrees) at 6 MPH (5 knots; 2.6 m/s)
Visibility: 3 miles ( 5 km)
Ceiling: 1200 feet AGL
Clouds: few clouds at 500 feet AGL
scattered clouds at 700 feet AGL
broken clouds at 1200 feet AGL
Weather: -SHRA  (light rain showers)

METAR text: RORS 180300Z 11015KT 3000 SHRA BR FEW006 BKN016 FEW020TCU BKN027 21/20 Q1019
Conditions at: RORS (SHIMOJI-SHIMA IS, JP) observed 0300 UTC 18 February 2019
Temperature: 21.0°C (70°F)
Dewpoint: 20.0°C (68°F) [RH = 94%]
Pressure (altimeter): 30.09 inches Hg (1019.0 mb)
Winds: from the ESE (110 degrees) at 17 MPH (15 knots; 7.7 m/s)
Visibility: 1.86 miles (2.99 km)
Ceiling: 1600 feet AGL
Clouds: few clouds at 600 feet AGL
broken clouds at 1600 feet AGL
few clouds at 2000 feet AGL
broken clouds at 2700 feet AGL
Weather: SHRA BR  (rain showers, mist)

METAR text: RORS 180200Z 10016KT 9999 SCT014 BKN026 BKN050 23/19 Q1019
Conditions at: RORS (SHIMOJI-SHIMA IS, JP) observed 0200 UTC 18 February 2019
Temperature: 23.0°C (73°F)
Dewpoint: 19.0°C (66°F) [RH = 78%]
Pressure (altimeter): 30.09 inches Hg (1019.0 mb)
Winds: from the E (100 degrees) at 18 MPH (16 knots; 8.2 m/s)
Visibility: 6 or more miles (10+ km)
Ceiling: 2600 feet AGL
Clouds: scattered clouds at 1400 feet AGL
broken clouds at 2600 feet AGL
broken clouds at 5000 feet AGL
Weather: no significant weather observed at this time

METAR text: RORS 180100Z 10014KT 8000 -SHRA FEW009 SCT010 BKN018 21/19 Q1019
Conditions at: RORS (SHIMOJI-SHIMA IS, JP) observed 0100 UTC 18 February 2019
Temperature: 21.0°C (70°F)
Dewpoint: 19.0°C (66°F) [RH = 88%]
Pressure (altimeter): 30.09 inches Hg (1019.0 mb)
Winds: from the E (100 degrees) at 16 MPH (14 knots; 7.2 m/s)
Visibility: 5 miles ( 8 km)
Ceiling: 1800 feet AGL
Clouds: few clouds at 900 feet AGL
scattered clouds at 1000 feet AGL
broken clouds at 1800 feet AGL
Weather: -SHRA  (light rain showers)

METAR text: RORS 180000Z 09016KT 9999 -SHRA FEW016 BKN020 21/19 Q1019
Conditions at: RORS (SHIMOJI-SHIMA IS, JP) observed 0000 UTC 18 February 2019
Temperature: 21.0°C (70°F)
Dewpoint: 19.0°C (66°F) [RH = 88%]
Pressure (altimeter): 30.09 inches Hg (1019.0 mb)
Winds: from the E (90 degrees) at 18 MPH (16 knots; 8.2 m/s)
Visibility: 6 or more miles (10+ km)
Ceiling: 2000 feet AGL
Clouds: few clouds at 1600 feet AGL
broken clouds at 2000 feet AGL
Weather: -SHRA  (light rain showers)

METAR text: RORS 172300Z 09018G28KT 9999 FEW015 BKN060 21/18 Q1018
Conditions at: RORS (SHIMOJI-SHIMA IS, JP) observed 2300 UTC 17 February 2019
Temperature: 21.0°C (70°F)
Dewpoint: 18.0°C (64°F) [RH = 83%]
Pressure (altimeter): 30.06 inches Hg (1018.0 mb)
Winds: from the E (90 degrees) at 21 MPH (18 knots; 9.3 m/s)
gusting to 32 MPH (28 knots; 14.4 m/s)
Visibility: 6 or more miles (10+ km)
Ceiling: 6000 feet AGL
Clouds: few clouds at 1500 feet AGL
broken clouds at 6000 feet AGL
Weather: no significant weather observed at this time

METAR text: RORS 172200Z 08017KT 9999 -SHRA FEW015 BKN019 BKN050 20/18 Q1018
Conditions at: RORS (SHIMOJI-SHIMA IS, JP) observed 2200 UTC 17 February 2019
Temperature: 20.0°C (68°F)
Dewpoint: 18.0°C (64°F) [RH = 88%]
Pressure (altimeter): 30.06 inches Hg (1018.0 mb)
Winds: from the E (80 degrees) at 20 MPH (17 knots; 8.7 m/s)
Visibility: 6 or more miles (10+ km)
Ceiling: 1900 feet AGL
Clouds: few clouds at 1500 feet AGL
broken clouds at 1900 feet AGL
broken clouds at 5000 feet AGL
Weather: -SHRA  (light rain showers)